Time;durP1;ratioP1;P1;durP2;ratioP2;P2;SDS_P1;SDS_P2;PMS_P1;PMS_P2;Temp;Humidity;BMP_temperature;BMP_pressure;BME280_temperature;BME280_humidity;BME280_pressure;Samples;Min_cycle;Max_cycle;Signal;HPM_P1;HPM_P2
2021/04/30 00:00:51;;;;;;;;;;;;;;;17.27;42.24;97891.59;5045974;28;20403;-76
2021/04/30 00:03:16;;;;;;;;;;;;;;;17.25;42.18;97893.25;5047971;28;19917;-77
2021/04/30 00:05:42;;;;;;;;;;;;;;;17.24;42.19;97888.91;5063598;28;20254;-76
2021/04/30 00:08:07;;;;;;;;;;;;;;;17.25;42.19;97894.06;5048124;28;19913;-76
2021/04/30 00:10:32;;;;;;;;;;;;;;;17.22;42.11;97888.56;5047583;28;19920;-76
2021/04/30 00:12:57;;;;;;;;;;;;;;;17.23;42.14;97892.91;5063991;28;19917;-76
2021/04/30 00:15:23;;;;;;;;;;;;;;;17.20;42.14;97897.34;5046757;28;19947;-76
2021/04/30 00:17:48;;;;;;;;;;;;;;;17.21;42.35;97895.34;5041689;28;19913;-76
2021/04/30 00:20:14;;;;;;;;;;;;;;;17.20;42.27;97899.38;5048270;28;20842;-75
2021/04/30 00:22:40;;;;;;;;;;;;;;;17.20;42.26;97894.56;5050858;28;20015;-76
2021/04/30 00:25:05;;;;;;;;;;;;;;;17.18;42.25;97891.41;5050863;28;20020;-76
2021/04/30 00:27:30;;;;;;;;;;;;;;;17.18;42.18;97899.81;5051126;28;20372;-76
2021/04/30 00:29:56;;;;;;;;;;;;;;;17.16;42.25;97896.66;5049877;28;20380;-76
2021/04/30 00:32:21;;;;;;;;;;;;;;;17.18;42.21;97897.00;5050268;28;20333;-76
2021/04/30 00:34:46;;;;;;;;;;;;;;;17.18;42.18;97901.81;5050390;28;19961;-76
2021/04/30 00:37:11;;;;;;;;;;;;;;;17.16;42.06;97899.47;5034255;28;19916;-76
2021/04/30 00:39:37;;;;;;;;;;;;;;;17.17;42.11;97897.47;5050246;28;19924;-76
2021/04/30 00:42:03;;;;;;;;;;;;;;;17.14;42.19;97899.13;5032811;28;19955;-76
2021/04/30 00:44:28;;;;;;;;;;;;;;;17.11;42.42;97908.34;5049817;28;20372;-76
2021/04/30 00:46:53;;;;;;;;;;;;;;;17.13;42.25;97912.31;5050834;28;20372;-76
2021/04/30 00:49:18;;;;;;;;;;;;;;;17.11;42.31;97911.16;5068292;28;20366;-76
2021/04/30 00:51:44;;;;;;;;;;;;;;;17.10;42.34;97920.75;5029703;28;19920;-76
2021/04/30 00:54:09;;;;;;;;;;;;;;;17.10;42.32;97920.75;5050730;28;20368;-77
2021/04/30 00:56:34;;;;;;;;;;;;;;;17.11;42.17;97923.13;5050293;28;19917;-76
2021/04/30 00:59:00;;;;;;;;;;;;;;;17.10;42.23;97921.56;5033400;28;19919;-76
2021/04/30 01:01:26;;;;;;;;;;;;;;;17.09;42.30;97922.78;5032584;28;20184;-76
2021/04/30 01:03:52;;;;;;;;;;;;;;;17.07;42.34;97918.84;5050633;28;19951;-76
2021/04/30 01:06:17;;;;;;;;;;;;;;;17.09;42.29;97922.00;5033586;28;19971;-76
2021/04/30 01:08:42;;;;;;;;;;;;;;;17.08;42.32;97926.00;5053212;28;20840;-76
2021/04/30 01:11:08;;;;;;;;;;;;;;;17.05;42.34;97921.31;5053720;28;20088;-76
2021/04/30 01:13:33;;;;;;;;;;;;;;;17.06;42.32;97925.66;5054119;28;19966;-76
2021/04/30 01:15:58;;;;;;;;;;;;;;;17.05;42.16;97927.69;5037300;28;19916;-75
2021/04/30 01:18:23;;;;;;;;;;;;;;;17.08;42.22;97921.22;5037086;28;20432;-76
2021/04/30 01:20:49;;;;;;;;;;;;;;;17.06;42.40;97928.47;5036402;28;20454;-76
2021/04/30 01:23:15;;;;;;;;;;;;;;;17.05;42.34;97932.47;5070297;28;19920;-76
2021/04/30 01:25:40;;;;;;;;;;;;;;;17.03;42.29;97932.09;5054099;28;20599;-76
2021/04/30 01:28:05;;;;;;;;;;;;;;;17.03;42.38;97932.88;5053757;28;19986;-75
2021/04/30 01:30:32;;;;;;;;;;;;;;;17.01;42.30;97928.97;5035819;28;19970;-76
2021/04/30 01:32:57;;;;;;;;;;;;;;;17.02;42.55;97938.91;5053837;28;20011;-76
2021/04/30 01:35:25;;;;;;;;;;;;;;;17.02;42.50;97934.13;5036681;28;20007;-75
2021/04/30 01:37:51;;;;;;;;;;;;;;;17.02;42.34;97938.91;5053240;28;19916;-73
2021/04/30 01:40:18;;;;;;;;;;;;;;;17.02;42.43;97944.50;5053171;28;20483;-76
2021/04/30 01:43:23;;;;;;;;;;;;;;;17.01;42.31;97942.94;5036714;28;19926;-76
2021/04/30 01:45:53;;;;;;;;;;;;;;;16.97;42.35;97951.41;4992044;28;20279;-76
2021/04/30 01:48:44;;;;;;;;;;;;;;;16.99;42.50;97945.38;4977572;28;19921;-76
2021/04/30 01:51:09;;;;;;;;;;;;;;;16.97;42.35;97948.63;5048413;28;20007;-75
2021/04/30 01:53:35;;;;;;;;;;;;;;;16.96;42.41;97952.59;5053113;28;20027;-76
2021/04/30 01:56:01;;;;;;;;;;;;;;;16.96;42.30;97949.03;5036466;28;19960;-76
2021/04/30 01:58:26;;;;;;;;;;;;;;;16.96;42.46;97955.41;5070405;28;20327;-75
2021/04/30 02:00:52;;;;;;;;;;;;;;;16.97;42.35;97959.81;5034932;28;19956;-76
2021/04/30 02:03:17;;;;;;;;;;;;;;;16.96;42.05;97957.41;5071292;28;19919;-76
2021/04/30 02:05:43;;;;;;;;;;;;;;;16.93;42.41;97953.50;5036222;28;19913;-76
2021/04/30 02:08:14;;;;;;;;;;;;;;;16.93;42.49;97958.28;5052489;28;19916;-76
2021/04/30 02:10:40;;;;;;;;;;;;;;;16.94;42.35;97955.06;5052049;28;20370;-76
2021/04/30 02:13:05;;;;;;;;;;;;;;;16.95;42.46;97955.84;5035304;28;20007;-76
2021/04/30 02:15:31;;;;;;;;;;;;;;;16.93;42.28;97952.69;5070605;28;19920;-76
2021/04/30 02:17:56;;;;;;;;;;;;;;;16.92;42.34;97953.94;5070579;28;19916;-76
2021/04/30 02:20:21;;;;;;;;;;;;;;;16.90;42.33;97957.16;5035216;28;19916;-76
2021/04/30 02:22:47;;;;;;;;;;;;;;;16.92;42.56;97951.13;5036009;28;20043;-76
2021/04/30 02:25:13;;;;;;;;;;;;;;;16.94;42.41;97957.06;5052438;28;20430;-76
2021/04/30 02:27:38;;;;;;;;;;;;;;;16.90;42.45;97950.78;5071221;28;19917;-76
2021/04/30 02:30:04;;;;;;;;;;;;;;;16.89;42.44;97946.41;5051783;28;20376;-76
2021/04/30 02:32:30;;;;;;;;;;;;;;;16.91;42.37;97943.97;5051034;28;19924;-76
2021/04/30 02:34:56;;;;;;;;;;;;;;;16.88;42.38;97951.22;5035127;28;19970;-76
2021/04/30 02:37:22;;;;;;;;;;;;;;;16.86;42.37;97945.25;5051765;28;20002;-80
2021/04/30 02:39:47;;;;;;;;;;;;;;;16.87;42.42;97946.81;5035405;28;20269;-76
2021/04/30 02:42:12;;;;;;;;;;;;;;;16.87;42.37;97948.84;5070173;28;19938;-75
2021/04/30 02:44:38;;;;;;;;;;;;;;;16.86;42.31;97948.06;5035557;28;20438;-76
2021/04/30 02:47:03;;;;;;;;;;;;;;;16.86;42.61;97948.06;5035230;28;19937;-76
2021/04/30 02:52:09;;;;;;;;;;;;;;;16.87;42.33;97957.22;5053561;28;19916;-75
2021/04/30 02:54:34;;;;;;;;;;;;;;;16.83;42.40;97965.69;5052136;28;20364;-76
2021/04/30 02:57:00;;;;;;;;;;;;;;;16.84;42.32;97964.47;5052417;28;19913;-76
2021/04/30 02:59:25;;;;;;;;;;;;;;;16.83;42.54;97960.09;5067977;28;19923;-75
2021/04/30 03:01:50;;;;;;;;;;;;;;;16.81;42.58;97963.34;5028967;28;19931;-76
2021/04/30 03:04:15;;;;;;;;;;;;;;;16.81;42.47;97966.13;5035133;28;19923;-76
2021/04/30 03:06:41;;;;;;;;;;;;;;;16.83;42.50;97969.28;5034907;28;20352;-76
2021/04/30 03:09:06;;;;;;;;;;;;;;;16.81;42.60;97971.72;5035058;28;20029;-76
2021/04/30 03:11:31;;;;;;;;;;;;;;;16.82;42.52;97976.09;5035244;28;19952;-76
2021/04/30 03:13:56;;;;;;;;;;;;;;;16.79;42.53;97974.13;5050921;28;19965;-75
2021/04/30 03:16:22;;;;;;;;;;;;;;;16.80;42.56;97970.16;5034569;28;19920;-75
2021/04/30 03:18:47;;;;;;;;;;;;;;;16.79;42.46;97968.53;5050996;28;20489;-76
2021/04/30 03:21:12;;;;;;;;;;;;;;;16.79;42.54;97976.94;5050795;28;20006;-75
2021/04/30 03:23:37;;;;;;;;;;;;;;;16.78;42.50;97966.97;5034297;28;19920;-76
2021/04/30 03:26:03;;;;;;;;;;;;;;;16.80;42.66;97972.16;5033643;28;20019;-75
2021/04/30 03:28:28;;;;;;;;;;;;;;;16.77;42.61;97971.00;5034547;28;19929;-75
2021/04/30 03:30:54;;;;;;;;;;;;;;;16.78;42.54;97974.56;5045669;28;19917;-76
2021/04/30 03:33:19;;;;;;;;;;;;;;;16.78;42.62;97971.78;5050962;28;19924;-74
2021/04/30 03:35:44;;;;;;;;;;;;;;;16.77;42.59;97971.00;5051242;28;20024;-75
2021/04/30 03:38:09;;;;;;;;;;;;;;;16.76;42.64;97972.22;5051317;28;19920;-75
2021/04/30 03:40:34;;;;;;;;;;;;;;;16.75;42.85;97976.22;5068750;28;19920;-76
2021/04/30 03:43:00;;;;;;;;;;;;;;;16.74;42.77;97969.06;5034193;28;20315;-76
2021/04/30 03:45:25;;;;;;;;;;;;;;;16.74;42.75;97974.66;5051297;28;20390;-76
2021/04/30 03:47:50;;;;;;;;;;;;;;;16.73;42.90;97975.88;5051335;28;19978;-76
2021/04/30 03:50:15;;;;;;;;;;;;;;;16.73;42.84;97975.88;5051003;28;19927;-75
2021/04/30 03:52:41;;;;;;;;;;;;;;;16.71;42.81;97969.91;5051335;28;19917;-76
2021/04/30 03:55:06;;;;;;;;;;;;;;;16.72;42.77;97981.91;5034163;28;19932;-76
2021/04/30 03:57:31;;;;;;;;;;;;;;;16.72;42.86;97984.69;5048861;28;19923;-76
2021/04/30 03:59:57;;;;;;;;;;;;;;;16.72;43.00;97979.91;5068754;28;20842;-76
2021/04/30 04:02:22;;;;;;;;;;;;;;;16.71;42.96;97983.88;5050365;28;20058;-76
2021/04/30 04:04:47;;;;;;;;;;;;;;;16.71;43.01;97989.47;5034634;28;19919;-76
2021/04/30 04:07:12;;;;;;;;;;;;;;;16.71;43.04;97988.69;5050349;28;19917;-76
2021/04/30 04:09:38;;;;;;;;;;;;;;;16.70;42.91;97993.47;5051197;28;20019;-76
2021/04/30 04:12:03;;;;;;;;;;;;;;;16.71;42.90;97994.28;5068453;28;19970;-76
2021/04/30 04:14:28;;;;;;;;;;;;;;;16.69;43.02;97994.72;5050462;28;20365;-76
2021/04/30 04:16:53;;;;;;;;;;;;;;;16.70;42.92;97995.50;5033783;28;19959;-76
2021/04/30 04:19:19;;;;;;;;;;;;;;;16.69;42.99;97997.50;5050420;28;19920;-76
2021/04/30 04:21:44;;;;;;;;;;;;;;;16.67;43.14;98002.72;5033373;28;20019;-76
2021/04/30 04:24:09;;;;;;;;;;;;;;;16.66;43.04;98003.94;5050521;28;19912;-75
2021/04/30 04:26:34;;;;;;;;;;;;;;;16.67;43.14;98008.28;5049841;28;19916;-76
2021/04/30 04:29:00;;;;;;;;;;;;;;;16.67;43.02;98005.50;5033195;28;20012;-76
2021/04/30 04:31:25;;;;;;;;;;;;;;;16.65;43.03;98013.53;5049726;28;19991;-76
2021/04/30 04:33:50;;;;;;;;;;;;;;;16.66;43.10;98017.88;5051009;28;20277;-76
2021/04/30 04:36:16;;;;;;;;;;;;;;;16.64;43.17;98013.97;5049826;28;19921;-76
2021/04/30 04:38:41;;;;;;;;;;;;;;;16.65;43.13;98024.69;5067365;28;20450;-76
2021/04/30 04:41:06;;;;;;;;;;;;;;;16.65;43.15;98021.13;5049839;28;19928;-76
2021/04/30 04:43:31;;;;;;;;;;;;;;;16.63;43.17;98029.91;5070493;28;19917;-75
2021/04/30 04:45:57;;;;;;;;;;;;;;;16.64;43.02;98028.72;5054407;28;19917;-76
2021/04/30 04:48:22;;;;;;;;;;;;;;;16.63;42.96;98032.69;5053636;28;19912;-75
2021/04/30 04:50:47;;;;;;;;;;;;;;;16.53;42.69;98034.50;5053947;28;20026;-76
2021/04/30 04:53:12;;;;;;;;;;;;;;;16.51;42.36;98034.13;5037661;28;20010;-76
2021/04/30 04:55:38;;;;;;;;;;;;;;;16.53;42.94;98042.09;5036955;28;19916;-75
2021/04/30 04:58:03;;;;;;;;;;;;;;;16.55;42.71;98034.88;5053770;28;19966;-76
2021/04/30 05:00:28;;;;;;;;;;;;;;;16.56;42.51;98038.44;5035876;28;20377;-76
2021/04/30 05:02:53;;;;;;;;;;;;;;;16.57;42.18;98040.03;5070966;28;20007;-76
2021/04/30 05:05:19;;;;;;;;;;;;;;;16.56;42.28;98032.88;5054527;28;19919;-77
2021/04/30 05:07:44;;;;;;;;;;;;;;;16.56;42.23;98039.22;5037124;28;19960;-77
2021/04/30 05:10:09;;;;;;;;;;;;;;;16.55;42.29;98042.47;5036609;28;19917;-76
2021/04/30 05:12:35;;;;;;;;;;;;;;;16.54;42.10;98044.44;5054586;28;20292;-76
2021/04/30 05:15:00;;;;;;;;;;;;;;;16.53;42.36;98036.50;5037140;28;19912;-75
2021/04/30 05:17:25;;;;;;;;;;;;;;;16.55;42.10;98048.03;5072172;28;19991;-76
2021/04/30 05:19:50;;;;;;;;;;;;;;;16.54;42.21;98052.03;5037057;28;19926;-76
2021/04/30 05:22:16;;;;;;;;;;;;;;;16.54;42.18;98032.47;5036902;28;20099;-76
2021/04/30 05:24:41;;;;;;;;;;;;;;;16.58;41.77;98044.38;5037925;28;19912;-76
2021/04/30 05:27:09;;;;;;;;;;;;;;;16.57;42.14;98049.19;5037375;28;19916;-76
2021/04/30 05:29:35;;;;;;;;;;;;;;;16.54;42.37;98052.03;5053613;28;20907;-76
2021/04/30 05:32:00;;;;;;;;;;;;;;;16.52;42.21;98049.66;5052808;28;19951;-76
2021/04/30 05:34:25;;;;;;;;;;;;;;;16.56;42.41;98058.78;5036904;28;20296;-76
2021/04/30 05:36:50;;;;;;;;;;;;;;;16.56;42.36;98056.00;5036783;28;19912;-76
2021/04/30 05:39:16;;;;;;;;;;;;;;;16.57;42.35;98065.94;5036994;28;19943;-76
2021/04/30 05:41:41;;;;;;;;;;;;;;;16.58;42.23;98067.50;5052615;28;19927;-76
2021/04/30 05:44:06;;;;;;;;;;;;;;;16.57;42.55;98071.53;5036619;28;20496;-76
2021/04/30 05:46:31;;;;;;;;;;;;;;;16.56;42.62;98074.75;5053123;28;19916;-75
2021/04/30 05:48:57;;;;;;;;;;;;;;;16.54;42.85;98074.38;5053412;28;19927;-76
2021/04/30 05:51:22;;;;;;;;;;;;;;;16.53;42.56;98081.19;5037199;28;20361;-77
2021/04/30 05:53:47;;;;;;;;;;;;;;;16.54;42.65;98085.53;5036391;28;19995;-75
2021/04/30 05:56:12;;;;;;;;;;;;;;;16.52;42.71;98085.97;5036980;28;20002;-76
2021/04/30 05:58:38;;;;;;;;;;;;;;;16.52;42.60;98083.19;5036730;28;20296;-76
2021/04/30 06:01:03;;;;;;;;;;;;;;;16.53;42.67;98087.53;5035823;28;19959;-76
2021/04/30 06:03:28;;;;;;;;;;;;;;;16.51;42.79;98101.16;5037057;28;19956;-76
2021/04/30 06:05:53;;;;;;;;;;;;;;;16.51;42.78;98098.38;5052956;28;19962;-76
2021/04/30 06:08:19;;;;;;;;;;;;;;;16.51;42.77;98098.38;5053764;28;19917;-79
2021/04/30 06:10:44;;;;;;;;;;;;;;;16.52;42.60;98099.16;5036677;28;19999;-76
2021/04/30 06:13:09;;;;;;;;;;;;;;;16.51;42.85;98100.38;5071827;28;20394;-76
2021/04/30 06:15:34;;;;;;;;;;;;;;;16.53;42.65;98103.50;5053442;28;19999;-76
2021/04/30 06:18:00;;;;;;;;;;;;;;;16.51;42.78;98103.16;5036561;28;19967;-76
2021/04/30 06:20:25;;;;;;;;;;;;;;;16.50;42.76;98099.56;5036369;28;19920;-76
2021/04/30 06:22:50;;;;;;;;;;;;;;;16.54;42.72;98103.09;5050363;28;19970;-76
2021/04/30 06:25:15;;;;;;;;;;;;;;;16.64;42.68;98104.13;5029122;28;20399;-76
2021/04/30 06:27:41;;;;;;;;;;;;;;;16.63;43.79;98105.31;5044023;28;20255;-76
2021/04/30 06:30:06;;;;;;;;;;;;;;;16.60;43.39;98108.97;5027329;28;19955;-77
2021/04/30 06:32:31;;;;;;;;;;;;;;;16.63;43.38;98105.31;5044470;28;20654;-77
2021/04/30 06:34:56;;;;;;;;;;;;;;;16.60;43.10;98116.56;5044923;28;20009;-77
2021/04/30 06:37:25;;;;;;;;;;;;;;;16.58;43.25;98122.59;5028086;28;20006;-76
2021/04/30 06:39:51;;;;;;;;;;;;;;;16.58;43.21;98119.78;5044743;28;19916;-76
2021/04/30 06:42:16;;;;;;;;;;;;;;;16.55;43.26;98127.03;5059065;28;19932;-75
2021/04/30 06:44:41;;;;;;;;;;;;;;;16.55;43.42;98129.03;5040942;28;19977;-75
2021/04/30 06:47:07;;;;;;;;;;;;;;;16.60;43.03;98124.94;5025705;28;19923;-76
2021/04/30 06:49:32;;;;;;;;;;;;;;;16.58;43.32;98136.53;5026081;28;19917;-75
2021/04/30 06:51:57;;;;;;;;;;;;;;;16.58;43.35;98134.53;5024448;28;20387;-76
2021/04/30 06:54:22;;;;;;;;;;;;;;;16.59;43.47;98135.31;5041487;28;20773;-76
2021/04/30 06:56:48;;;;;;;;;;;;;;;16.58;43.30;98134.53;5041675;28;20392;-76
2021/04/30 06:59:13;;;;;;;;;;;;;;;16.59;43.61;98135.31;5042519;28;19916;-76
2021/04/30 07:01:38;;;;;;;;;;;;;;;16.71;43.24;98137.50;5042390;28;19994;-76
2021/04/30 07:04:04;;;;;;;;;;;;;;;16.73;43.32;98135.09;5027905;28;20269;-76
2021/04/30 07:06:29;;;;;;;;;;;;;;;16.68;43.54;98129.19;5061530;28;19992;-76
2021/04/30 07:08:54;;;;;;;;;;;;;;;16.61;43.55;98123.72;5024157;28;20025;-76
2021/04/30 07:11:20;;;;;;;;;;;;;;;16.60;43.82;98136.13;5035175;28;19951;-76
2021/04/30 07:13:45;;;;;;;;;;;;;;;16.60;43.64;98130.53;5041719;28;20618;-76
2021/04/30 07:16:11;;;;;;;;;;;;;;;16.58;43.65;98125.38;5025151;28;19967;-75
2021/04/30 07:18:36;;;;;;;;;;;;;;;16.58;43.89;98123.38;5058289;28;19916;-76
2021/04/30 07:21:01;;;;;;;;;;;;;;;16.58;43.81;98128.94;5040376;28;19956;-75
2021/04/30 07:23:28;;;;;;;;;;;;;;;16.59;43.56;98124.16;5026949;28;20653;-76
2021/04/30 07:25:53;;;;;;;;;;;;;;;16.58;43.50;98130.97;5044456;28;20782;-76
2021/04/30 07:28:18;;;;;;;;;;;;;;;16.58;43.54;98128.16;5025749;28;19916;-78
2021/04/30 07:30:43;;;;;;;;;;;;;;;16.57;43.51;98121.78;5039365;28;19921;-75
2021/04/30 07:33:09;;;;;;;;;;;;;;;16.60;43.53;98122.94;5041286;28;19940;-76
2021/04/30 07:35:34;;;;;;;;;;;;;;;16.60;43.45;98122.16;5038705;28;20023;-75
2021/04/30 07:37:59;;;;;;;;;;;;;;;16.60;43.70;98125.72;5036566;28;20426;-76
2021/04/30 07:40:25;;;;;;;;;;;;;;;16.58;43.37;98131.75;5008546;28;19952;-74
2021/04/30 07:42:50;;;;;;;;;;;;;;;16.58;43.66;98130.97;5043265;28;20430;-75
2021/04/30 07:45:15;;;;;;;;;;;;;;;16.58;43.61;98130.97;5026436;28;19952;-76
2021/04/30 07:47:40;;;;;;;;;;;;;;;16.60;43.64;98138.91;5043018;28;19948;-77
2021/04/30 07:50:06;;;;;;;;;;;;;;;16.60;43.28;98144.50;5042904;28;19917;-77
2021/04/30 07:52:31;;;;;;;;;;;;;;;16.61;43.42;98152.44;5061213;28;19924;-75
2021/04/30 07:54:56;;;;;;;;;;;;;;;16.59;43.42;98149.28;5026596;28;19921;-74
2021/04/30 07:57:22;;;;;;;;;;;;;;;16.62;43.38;98150.44;5042539;28;19916;-74
2021/04/30 07:59:47;;;;;;;;;;;;;;;16.61;43.35;98155.22;5025702;28;19959;-74
2021/04/30 08:02:12;;;;;;;;;;;;;;;16.62;43.44;98158.81;5042316;28;19931;-75
2021/04/30 08:06:58;;;;;;;;;;;;;;;16.78;43.04;98144.97;5053190;27;19921;-70
2021/04/30 08:09:23;;;;;;;;;;;;;;;16.62;43.39;98147.63;5015613;28;19972;-69
2021/04/30 08:11:48;;;;;;;;;;;;;;;16.58;43.70;98156.09;5015361;28;19960;-70
2021/04/30 08:14:14;;;;;;;;;;;;;;;16.54;43.87;98156.16;5015850;28;19991;-69
2021/04/30 08:16:39;;;;;;;;;;;;;;;16.57;43.89;98165.69;5014838;28;19913;-69
2021/04/30 08:19:04;;;;;;;;;;;;;;;16.55;44.12;98165.34;5014277;28;19917;-68
2021/04/30 08:21:30;;;;;;;;;;;;;;;16.51;43.92;98173.75;4997385;28;20745;-70
2021/04/30 08:23:55;;;;;;;;;;;;;;;16.52;43.97;98168.97;5015126;28;20832;-68
2021/04/30 08:26:20;;;;;;;;;;;;;;;16.51;44.13;98170.19;5015958;28;19925;-69
2021/04/30 08:28:46;;;;;;;;;;;;;;;16.52;43.95;98177.34;5016026;28;21029;-67
2021/04/30 08:31:11;;;;;;;;;;;;;;;16.49;44.08;98159.44;5024386;28;19936;-69
2021/04/30 08:33:36;;;;;;;;;;;;;;;16.48;43.98;98157.88;5045141;28;20651;-67
2021/04/30 08:36:02;;;;;;;;;;;;;;;16.49;43.98;98148.28;5039400;28;19917;-69
2021/04/30 08:38:27;;;;;;;;;;;;;;;16.49;43.97;98153.06;5039324;28;19924;-70
2021/04/30 08:40:52;;;;;;;;;;;;;;;16.49;44.15;98151.06;5043761;28;19916;-68
2021/04/30 08:43:18;;;;;;;;;;;;;;;16.50;44.23;98149.84;5040878;28;19923;-70
2021/04/30 08:45:43;;;;;;;;;;;;;;;16.53;44.06;98139.81;5038406;28;19924;-68
2021/04/30 08:48:13;;;;;;;;;;;;;;;16.54;44.11;98138.59;5040701;28;19924;-69
2021/04/30 08:50:38;;;;;;;;;;;;;;;16.55;44.01;98140.19;5036803;28;19966;-68
2021/04/30 08:53:04;;;;;;;;;;;;;;;16.59;43.68;98135.31;5040248;28;20436;-71
2021/04/30 08:55:30;;;;;;;;;;;;;;;16.68;44.19;98140.34;5041211;28;19980;-70
2021/04/30 08:57:55;;;;;;;;;;;;;;;16.66;43.74;98137.22;5043526;28;20656;-69
2021/04/30 09:00:21;;;;;;;;;;;;;;;16.67;43.62;98133.19;5039695;28;19970;-70
2021/04/30 09:02:46;;;;;;;;;;;;;;;16.80;43.84;98134.19;5036764;28;19917;-69
2021/04/30 09:05:13;;;;;;;;;;;;;;;16.83;43.83;98138.91;5045602;28;19931;-69
2021/04/30 09:07:39;;;;;;;;;;;;;;;16.89;43.70;98142.00;5047425;28;20517;-67
2021/04/30 09:10:05;;;;;;;;;;;;;;;16.94;44.04;98142.28;5060141;28;20015;-68
2021/04/30 09:12:30;;;;;;;;;;;;;;;17.04;44.56;98144.06;5046895;28;20392;-69
2021/04/30 09:14:56;;;;;;;;;;;;;;;17.07;44.38;98143.22;5041083;28;19917;-69
2021/04/30 09:17:21;;;;;;;;;;;;;;;17.08;44.43;98155.97;5039358;28;20049;-69
2021/04/30 09:19:48;;;;;;;;;;;;;;;17.10;44.71;98149.97;5032792;28;19921;-69
2021/04/30 09:22:16;;;;;;;;;;;;;;;17.11;44.67;98146.72;5028128;28;19917;-69
2021/04/30 09:24:41;;;;;;;;;;;;;;;17.15;44.79;98152.25;5028829;28;20003;-70
2021/04/30 09:27:07;;;;;;;;;;;;;;;17.15;44.19;98143.09;5031679;28;19923;-68
2021/04/30 09:29:34;;;;;;;;;;;;;;;17.16;44.65;98141.88;5030146;28;20777;-69
2021/04/30 09:31:59;;;;;;;;;;;;;;;17.20;44.57;98142.56;5018454;28;19932;-67
2021/04/30 09:34:31;;;;;;;;;;;;;;;17.19;44.62;98146.59;5030162;28;19916;-69
2021/04/30 09:36:57;;;;;;;;;;;;;;;17.19;44.69;98152.19;5021194;28;19916;-68
2021/04/30 09:39:23;;;;;;;;;;;;;;;17.18;44.51;98154.19;5030395;28;19927;-70
2021/04/30 09:42:07;;;;;;;;;;;;;;;17.19;44.39;98144.59;5029307;28;19921;-70
2021/04/30 09:44:35;;;;;;;;;;;;;;;17.19;44.75;98157.78;5045929;28;19956;-69
2021/04/30 09:47:13;;;;;;;;;;;;;;;17.20;44.48;98148.94;5032987;28;19924;-69
2021/04/30 09:49:39;;;;;;;;;;;;;;;17.19;43.87;98146.59;5028358;28;20504;-67
2021/04/30 09:52:04;;;;;;;;;;;;;;;17.20;44.58;98151.75;5031824;28;19916;-68
2021/04/30 09:54:30;;;;;;;;;;;;;;;17.23;44.74;98167.69;5012353;28;19916;-70
2021/04/30 09:57:01;;;;;;;;;;;;;;;17.24;44.71;98168.47;5023650;28;19923;-67
2021/04/30 09:59:26;;;;;;;;;;;;;;;17.23;44.56;98169.69;5030026;28;20411;-69
2021/04/30 10:02:07;;;;;;;;;;;;;;;17.22;44.34;98173.69;5030083;28;19960;-70
2021/04/30 10:04:34;;;;;;;;;;;;;;;17.18;43.51;98176.56;5045220;28;19923;-69
2021/04/30 10:07:00;;;;;;;;;;;;;;;17.11;43.37;98168.31;5026691;28;19920;-67
2021/04/30 10:09:26;;;;;;;;;;;;;;;17.08;43.23;98166.38;5031074;28;19923;-69
2021/04/30 10:11:51;;;;;;;;;;;;;;;17.05;43.32;98168.03;5029017;28;19920;-69
2021/04/30 10:14:17;;;;;;;;;;;;;;;17.03;43.20;98167.66;5030151;28;19916;-69
2021/04/30 10:16:42;;;;;;;;;;;;;;;17.04;43.38;98160.06;5028366;28;19916;-68
2021/04/30 10:19:07;;;;;;;;;;;;;;;17.03;43.15;98166.88;5028574;28;20007;-69
2021/04/30 10:21:33;;;;;;;;;;;;;;;17.03;43.91;98161.28;5031394;28;19916;-68
2021/04/30 10:23:58;;;;;;;;;;;;;;;17.02;43.57;98163.28;5055655;28;19916;-68
2021/04/30 10:26:23;;;;;;;;;;;;;;;17.01;43.08;98155.31;5022553;28;19955;-68
2021/04/30 10:28:50;;;;;;;;;;;;;;;17.00;43.11;98162.94;5020966;28;19916;-69
2021/04/30 10:31:16;;;;;;;;;;;;;;;17.00;43.10;98165.72;5030663;28;19921;-67
2021/04/30 10:33:42;;;;;;;;;;;;;;;16.98;43.22;98156.97;5020146;28;19923;-67
2021/04/30 10:36:18;;;;;;;;;;;;;;;16.98;43.11;98164.59;5020749;28;19980;-69
2021/04/30 10:38:47;;;;;;;;;;;;;;;16.97;43.06;98166.59;5037573;28;19916;-68
2021/04/30 10:41:13;;;;;;;;;;;;;;;16.97;43.00;98160.22;5036523;28;19916;-67
2021/04/30 10:43:38;;;;;;;;;;;;;;;16.98;43.14;98161.78;5038336;28;19979;-67
2021/04/30 10:46:04;;;;;;;;;;;;;;;16.96;43.42;98167.00;5003927;28;19920;-67
2021/04/30 10:48:31;;;;;;;;;;;;;;;16.97;43.77;98155.41;5020564;28;19986;-69
2021/04/30 10:51:13;;;;;;;;;;;;;;;16.97;43.49;98158.22;5025576;28;19963;-68
2021/04/30 10:53:38;;;;;;;;;;;;;;;16.98;43.28;98154.19;5020863;28;19923;-68
2021/04/30 10:56:22;;;;;;;;;;;;;;;16.98;43.18;98154.19;5031852;28;19921;-69
2021/04/30 10:58:47;;;;;;;;;;;;;;;16.98;43.22;98154.19;5054721;28;19920;-69
2021/04/30 11:01:23;;;;;;;;;;;;;;;16.99;43.18;98158.56;5029463;28;19973;-67
2021/04/30 11:04:07;;;;;;;;;;;;;;;16.97;43.30;98166.59;5030133;28;19950;-67
2021/04/30 11:06:32;;;;;;;;;;;;;;;16.97;43.16;98165.81;5042653;28;19924;-67
2021/04/30 11:09:01;;;;;;;;;;;;;;;16.96;43.21;98156.59;5030944;28;19977;-69
2021/04/30 11:11:36;;;;;;;;;;;;;;;16.96;43.53;98153.81;5027968;28;20368;-68
2021/04/30 11:14:19;;;;;;;;;;;;;;;16.95;43.70;98149.44;5028350;28;20832;-68
2021/04/30 11:16:45;;;;;;;;;;;;;;;16.94;43.55;98159.03;5043205;28;19969;-69
2021/04/30 11:19:10;;;;;;;;;;;;;;;16.94;43.63;98163.84;5018576;28;20977;-69
2021/04/30 11:21:39;;;;;;;;;;;;;;;16.92;43.44;98163.50;5029712;28;19956;-68
2021/04/30 11:24:06;;;;;;;;;;;;;;;16.91;43.50;98150.75;5044797;28;19918;-68
2021/04/30 11:26:32;;;;;;;;;;;;;;;16.91;43.64;98145.94;5029331;28;20454;-69
2021/04/30 11:28:57;;;;;;;;;;;;;;;16.91;43.61;98150.75;5027803;28;20782;-67
2021/04/30 11:31:26;;;;;;;;;;;;;;;16.90;43.55;98149.94;5045706;28;19920;-67
2021/04/30 11:34:15;;;;;;;;;;;;;;;16.90;43.64;98149.94;5028170;28;19916;-70
2021/04/30 11:36:41;;;;;;;;;;;;;;;16.89;43.59;98148.38;5031455;28;19927;-69
2021/04/30 11:39:16;;;;;;;;;;;;;;;16.92;43.75;98149.53;5043475;28;19917;-69
2021/04/30 11:41:42;;;;;;;;;;;;;;;16.91;43.79;98150.75;5016527;28;20438;-68
2021/04/30 11:44:07;;;;;;;;;;;;;;;16.91;43.81;98161.91;5031160;28;20928;-69
2021/04/30 11:46:32;;;;;;;;;;;;;;;16.89;43.85;98173.53;5028362;28;20020;-70
2021/04/30 11:48:57;;;;;;;;;;;;;;;16.89;43.79;98173.53;5021208;28;20539;-70
2021/04/30 11:51:22;;;;;;;;;;;;;;;16.89;43.92;98181.13;5026161;28;20020;-70
2021/04/30 11:53:54;;;;;;;;;;;;;;;16.89;43.73;98172.75;5028485;28;19923;-67
2021/04/30 11:56:19;;;;;;;;;;;;;;;16.88;43.73;98155.19;5026982;28;19923;-70
2021/04/30 11:58:45;;;;;;;;;;;;;;;16.90;43.80;98157.56;5027912;28;19916;-68
2021/04/30 12:01:11;;;;;;;;;;;;;;;16.89;43.96;98164.34;5026619;28;20007;-69
2021/04/30 12:03:49;;;;;;;;;;;;;;;16.89;43.72;98164.34;5028240;28;19923;-68
2021/04/30 12:06:18;;;;;;;;;;;;;;;16.89;44.04;98158.78;5026815;28;19971;-68
2021/04/30 12:08:44;;;;;;;;;;;;;;;16.99;43.69;98160.56;5045175;28;19917;-68
2021/04/30 12:11:10;;;;;;;;;;;;;;;17.16;43.95;98159.44;5025431;28;19924;-69
2021/04/30 12:13:38;;;;;;;;;;;;;;;17.24;43.93;98168.47;5052067;28;20262;-70
2021/04/30 12:16:13;;;;;;;;;;;;;;;17.15;44.11;98165.44;5029981;28;19932;-70
2021/04/30 12:18:38;;;;;;;;;;;;;;;17.08;43.90;98166.38;5053508;28;20125;-70
2021/04/30 12:21:04;;;;;;;;;;;;;;;17.02;44.04;98157.69;5031766;28;20385;-70
2021/04/30 12:23:29;;;;;;;;;;;;;;;16.98;43.76;98151.41;5036519;28;20304;-69
2021/04/30 12:25:54;;;;;;;;;;;;;;;16.95;43.23;98151.44;5038187;28;19928;-70
2021/04/30 12:28:23;;;;;;;;;;;;;;;16.90;42.63;98149.94;5059804;28;19920;-70
2021/04/30 12:30:55;;;;;;;;;;;;;;;16.89;41.84;98147.59;5030089;28;19921;-70
2021/04/30 12:33:30;;;;;;;;;;;;;;;16.85;41.32;98140.06;5055314;28;19912;-70
2021/04/30 12:35:59;;;;;;;;;;;;;;;16.83;41.08;98139.69;5040739;28;19983;-69
2021/04/30 12:38:25;;;;;;;;;;;;;;;16.82;40.67;98143.72;5034424;28;19913;-69
2021/04/30 12:40:50;;;;;;;;;;;;;;;16.81;40.80;98144.16;5058549;28;19917;-69
2021/04/30 12:43:22;;;;;;;;;;;;;;;16.80;40.86;98143.34;5040871;28;19962;-69
2021/04/30 12:45:48;;;;;;;;;;;;;;;16.80;40.48;98139.78;5041088;28;19924;-70
2021/04/30 12:48:13;;;;;;;;;;;;;;;16.79;40.27;98141.75;5032196;28;19916;-70